createdAt,value
2019-04-11T00:01:36.889Z,4.10
2019-04-11T00:04:08.547Z,4.30
2019-04-11T00:06:39.539Z,4.43
2019-04-11T00:09:16.726Z,4.23
2019-04-11T00:11:52.970Z,4.33
2019-04-11T00:14:24.190Z,3.80
2019-04-11T00:16:55.476Z,4.23
2019-04-11T00:19:30.076Z,4.20
2019-04-11T00:22:03.541Z,4.20
2019-04-11T00:24:34.573Z,4.80
2019-04-11T00:27:12.893Z,4.33
2019-04-11T00:29:51.360Z,4.40
2019-04-11T00:32:27.294Z,4.53
2019-04-11T00:35:01.247Z,4.43
2019-04-11T00:37:32.773Z,4.87
2019-04-11T00:40:08.994Z,4.40
2019-04-11T00:42:43.168Z,4.40
2019-04-11T00:45:19.147Z,4.20
2019-04-11T00:47:53.457Z,4.40
2019-04-11T00:50:25.781Z,5.53
2019-04-11T00:53:00.083Z,4.53
2019-04-11T00:55:32.534Z,4.37
2019-04-11T00:58:03.501Z,4.23
2019-04-11T01:00:38.338Z,4.83
2019-04-11T01:03:10.024Z,3.97
2019-04-11T01:05:41.547Z,4.77
2019-04-11T01:08:13.712Z,4.70
2019-04-11T01:10:45.613Z,4.60
2019-04-11T01:13:17.586Z,4.70
2019-04-11T01:16:00.526Z,4.63
2019-04-11T01:18:40.330Z,5.10
2019-04-11T01:21:15.837Z,5.23
2019-04-11T01:23:53.409Z,5.17
2019-04-11T01:26:25.363Z,5.07
2019-04-11T01:28:56.928Z,4.60
2019-04-11T01:31:29.469Z,5.37
2019-04-11T01:34:00.216Z,5.07
2019-04-11T01:36:31.148Z,4.90
2019-04-11T01:39:05.203Z,5.53
2019-04-11T01:41:38.711Z,4.87
2019-04-11T01:44:17.024Z,5.30
2019-04-11T01:46:50.677Z,6.07
2019-04-11T01:49:24.094Z,5.80
2019-04-11T01:51:55.982Z,6.03
2019-04-11T01:54:28.230Z,6.13
2019-04-11T01:57:01.328Z,5.50
2019-04-11T01:59:33.438Z,5.90
2019-04-11T02:02:30.607Z,5.70
2019-04-11T02:05:25.149Z,6.40
2019-04-11T02:07:56.255Z,6.53
2019-04-11T02:10:32.884Z,6.20
2019-04-11T02:13:06.068Z,6.40
2019-04-11T02:15:40.955Z,6.23
2019-04-11T02:18:13.048Z,6.70
2019-04-11T02:20:49.352Z,6.83
2019-04-11T02:23:26.772Z,6.37
2019-04-11T02:26:16.853Z,6.70
2019-04-11T02:28:48.918Z,6.93
2019-04-11T02:31:22.925Z,6.13
2019-04-11T02:33:55.185Z,6.53
2019-04-11T02:36:27.340Z,7.20
2019-04-11T02:39:15.004Z,6.80
2019-04-11T02:41:48.014Z,7.47
2019-04-11T02:44:41.075Z,6.63
2019-04-11T02:47:01.807Z,6.90
2019-04-11T02:49:30.979Z,7.17
2019-04-11T02:52:04.561Z,6.80
2019-04-11T02:54:36.646Z,6.60
2019-04-11T02:57:08.180Z,7.23
2019-04-11T02:59:48.970Z,7.20
2019-04-11T03:02:26.018Z,6.93
2019-04-11T03:04:57.235Z,6.83
2019-04-11T03:07:29.861Z,7.20
2019-04-11T03:10:00.577Z,6.70
2019-04-11T03:12:32.273Z,7.37
2019-04-11T03:15:24.234Z,7.10
2019-04-11T03:17:43.317Z,7.27
2019-04-11T03:20:23.057Z,7.93
2019-04-11T03:22:53.114Z,7.57
2019-04-11T03:25:22.528Z,7.67
2019-04-11T03:28:01.599Z,7.07
2019-04-11T03:30:54.563Z,8.00
2019-04-11T03:37:03.292Z,8.10
2019-04-11T03:38:44.574Z,8.63
2019-04-11T03:41:12.061Z,7.40
2019-04-11T03:43:52.580Z,7.50
2019-04-11T03:46:37.703Z,7.23
2019-04-11T03:49:09.331Z,7.97
2019-04-11T03:51:31.274Z,7.40
2019-04-11T03:54:05.216Z,8.00
2019-04-11T03:56:37.226Z,8.20
2019-04-11T03:59:14.134Z,8.17
2019-04-11T04:01:46.746Z,8.37
2019-04-11T04:04:21.349Z,8.23
2019-04-11T04:06:50.749Z,8.03
2019-04-11T04:09:23.774Z,7.70
2019-04-11T04:11:56.656Z,7.77
2019-04-11T04:14:46.759Z,8.67
2019-04-11T04:17:35.892Z,8.13
2019-04-11T04:20:45.974Z,7.77
2019-04-11T04:23:23.172Z,7.63
2019-04-11T04:25:54.604Z,8.57
2019-04-11T04:28:27.104Z,7.63
2019-04-11T04:30:58.020Z,8.17
2019-04-11T04:33:30.619Z,7.67
2019-04-11T04:36:02.450Z,8.33
2019-04-11T04:38:37.722Z,8.90
2019-04-11T04:41:23.919Z,8.83
2019-04-11T04:43:44.455Z,9.53
2019-04-11T04:46:29.923Z,8.77
2019-04-11T04:48:49.962Z,8.60
2019-04-11T04:51:24.066Z,9.40
2019-04-11T04:53:53.156Z,9.67
2019-04-11T04:56:28.431Z,9.43
2019-04-11T04:58:56.143Z,9.67
2019-04-11T05:01:29.645Z,9.67
2019-04-11T05:04:06.742Z,10.40
2019-04-11T05:06:38.719Z,10.67
2019-04-11T05:09:10.689Z,9.77
2019-04-11T05:11:42.778Z,10.20
2019-04-11T05:14:14.605Z,9.63
2019-04-11T05:16:46.122Z,9.60
2019-04-11T05:19:19.034Z,10.00
2019-04-11T05:21:49.885Z,9.80
2019-04-11T05:24:22.900Z,10.57
2019-04-11T05:26:54.074Z,8.53
2019-04-11T05:29:37.546Z,8.90
2019-04-11T05:32:15.474Z,9.70
2019-04-11T05:34:48.950Z,10.17
2019-04-11T05:37:20.823Z,9.70
2019-04-11T05:39:53.110Z,9.20
2019-04-11T05:42:26.942Z,9.47
2019-04-11T05:44:59.104Z,9.03
2019-04-11T05:47:31.839Z,9.10
2019-04-11T05:50:22.174Z,8.47
2019-04-11T05:52:54.626Z,9.47
2019-04-11T05:55:26.334Z,8.67
2019-04-11T05:57:58.630Z,8.40
2019-04-11T06:00:40.895Z,8.43
2019-04-11T06:03:11.894Z,9.97
2019-04-11T06:06:00.361Z,8.97
2019-04-11T06:08:32.298Z,8.37
2019-04-11T06:11:23.665Z,9.50
2019-04-11T06:14:24.911Z,11.10
2019-04-11T06:16:59.145Z,8.47
2019-04-11T06:19:44.535Z,8.47
2019-04-11T06:22:14.979Z,8.80
2019-04-11T06:25:11.619Z,8.77
2019-04-11T06:28:01.937Z,9.10
2019-04-11T06:31:01.017Z,8.90
2019-04-11T06:33:36.677Z,8.77
2019-04-11T06:36:16.523Z,8.70
2019-04-11T06:39:19.050Z,8.17
2019-04-11T06:42:07.681Z,7.87
2019-04-11T06:44:56.467Z,8.00
2019-04-11T06:47:43.168Z,7.20
2019-04-11T06:50:49.367Z,7.80
2019-04-11T06:53:24.075Z,7.17
2019-04-11T06:56:23.412Z,7.63
2019-04-11T06:59:01.723Z,7.63
2019-04-11T07:01:32.508Z,7.97
2019-04-11T07:04:06.027Z,7.70
2019-04-11T07:06:38.260Z,8.93
2019-04-11T07:09:28.758Z,8.00
2019-04-11T07:12:03.754Z,8.83
2019-04-11T07:14:47.596Z,8.27
2019-04-11T07:17:36.923Z,9.03
2019-04-11T07:20:29.629Z,9.10
2019-04-11T07:23:17.907Z,9.57
2019-04-11T07:26:12.193Z,8.80
2019-04-11T07:29:01.599Z,9.43
2019-04-11T07:31:52.916Z,8.83
2019-04-11T07:34:48.071Z,8.67
2019-04-11T07:37:38.709Z,7.67
2019-04-11T07:40:29.514Z,7.10
2019-04-11T07:43:19.134Z,7.10
2019-04-11T07:46:40.796Z,7.03
2019-04-11T07:49:04.198Z,6.70
2019-04-11T07:51:42.838Z,6.50
2019-04-11T07:54:15.847Z,6.80
2019-04-11T07:57:05.402Z,7.20
2019-04-11T08:00:08.261Z,7.00
2019-04-11T08:03:07.879Z,7.10
2019-04-11T08:05:48.069Z,7.57
2019-04-11T08:08:32.410Z,6.50
2019-04-11T08:11:20.472Z,5.43
2019-04-11T08:14:08.334Z,5.33
2019-04-11T08:17:27.010Z,5.40
2019-04-11T08:20:04.990Z,6.00
2019-04-11T08:22:41.343Z,6.30
2019-04-11T08:25:30.003Z,5.10
2019-04-11T08:28:09.243Z,5.00
2019-04-11T08:30:57.247Z,5.93
2019-04-11T08:33:28.875Z,5.53
2019-04-11T08:36:24.411Z,5.50
2019-04-11T08:38:58.548Z,5.27
2019-04-11T08:41:47.916Z,5.13
2019-04-11T08:44:39.642Z,6.77
2019-04-11T08:47:13.032Z,5.90
2019-04-11T08:49:50.171Z,5.60
2019-04-11T08:52:42.353Z,6.03
2019-04-11T08:55:21.000Z,5.87
2019-04-11T08:58:14.159Z,6.10
2019-04-11T09:01:05.386Z,5.30
2019-04-11T09:04:01.296Z,5.63
2019-04-11T09:06:28.480Z,5.57
2019-04-11T09:09:20.899Z,4.50
2019-04-11T09:11:54.143Z,5.40
2019-04-11T09:15:04.450Z,5.07
2019-04-11T09:18:04.169Z,4.57
2019-04-11T09:21:02.821Z,5.07
2019-04-11T09:23:33.556Z,5.20
2019-04-11T09:26:32.116Z,5.27
2019-04-11T09:29:04.165Z,5.80
2019-04-11T09:32:02.238Z,5.97
2019-04-11T09:34:48.218Z,5.33
2019-04-11T09:37:30.487Z,5.00
2019-04-11T09:40:26.300Z,5.23
2019-04-11T09:43:24.382Z,5.13
2019-04-11T09:46:18.475Z,5.47
2019-04-11T09:49:18.462Z,4.63
2019-04-11T09:51:58.747Z,5.13
2019-04-11T09:58:02.954Z,5.13
2019-04-11T10:00:55.719Z,5.13
2019-04-11T10:03:39.315Z,5.80
2019-04-11T10:06:32.373Z,5.13
2019-04-11T10:09:03.835Z,4.97
2019-04-11T10:11:54.903Z,5.47
2019-04-11T10:14:29.734Z,4.97
2019-04-11T10:17:22.732Z,4.73
2019-04-11T10:20:04.709Z,5.10
2019-04-11T10:22:58.407Z,4.83
2019-04-11T10:25:45.568Z,5.60
2019-04-11T10:28:33.984Z,4.87
2019-04-11T10:31:10.655Z,5.37
2019-04-11T10:34:09.196Z,5.27
2019-04-11T10:36:51.549Z,5.33
2019-04-11T10:39:49.269Z,5.57
2019-04-11T10:42:20.226Z,4.50
2019-04-11T10:45:10.087Z,5.67
2019-04-11T10:47:40.902Z,5.70
2019-04-11T10:50:36.048Z,6.07
2019-04-11T10:53:06.880Z,5.17
2019-04-11T10:56:10.736Z,4.90
2019-04-11T10:58:59.419Z,5.47
2019-04-11T11:02:02.962Z,5.00
2019-04-11T11:04:48.496Z,5.60
2019-04-11T11:07:24.706Z,5.00
2019-04-11T11:10:15.420Z,5.53
2019-04-11T11:13:05.665Z,4.73
2019-04-11T11:15:44.034Z,4.83
2019-04-11T11:19:03.210Z,4.90
2019-04-11T11:21:19.939Z,5.10
2019-04-11T11:24:11.811Z,5.13
2019-04-11T11:26:44.280Z,5.13
2019-04-11T11:29:28.950Z,5.63
2019-04-11T11:32:07.527Z,5.30
2019-04-11T11:34:52.149Z,5.27
2019-04-11T11:37:42.258Z,4.77
2019-04-11T11:40:39.198Z,5.07
2019-04-11T11:43:23.245Z,5.00
2019-04-11T11:46:31.637Z,4.93
2019-04-11T11:49:37.529Z,5.13
2019-04-11T11:52:11.287Z,5.63
2019-04-11T11:54:48.250Z,5.60
2019-04-11T11:57:50.923Z,5.63
2019-04-11T12:00:27.444Z,5.43
2019-04-11T12:03:10.930Z,5.37
2019-04-11T12:05:51.925Z,5.33
2019-04-11T12:08:53.932Z,5.00
2019-04-11T12:11:26.137Z,4.80
2019-04-11T12:14:33.044Z,5.23
2019-04-11T12:17:23.175Z,4.93
2019-04-11T12:20:14.945Z,5.33
2019-04-11T12:22:49.527Z,4.50
2019-04-11T12:25:31.784Z,5.80
2019-04-11T12:28:30.092Z,5.40
2019-04-11T12:31:05.431Z,5.37
2019-04-11T12:33:55.004Z,5.00
2019-04-11T12:36:30.687Z,4.87
2019-04-11T12:39:25.526Z,5.40
2019-04-11T12:42:09.129Z,5.60
2019-04-11T12:44:59.340Z,5.30
2019-04-11T12:47:49.187Z,5.30
2019-04-11T12:50:37.775Z,5.50
2019-04-11T12:53:15.897Z,5.10
2019-04-11T12:56:05.178Z,5.27
2019-04-11T12:59:08.175Z,5.53
2019-04-11T13:01:56.291Z,4.93
2019-04-11T13:04:44.180Z,5.47
2019-04-11T13:07:33.055Z,5.30
2019-04-11T13:10:31.343Z,5.20
2019-04-11T13:13:20.986Z,5.50
2019-04-11T13:16:13.211Z,6.00
2019-04-11T13:19:03.786Z,5.87
2019-04-11T13:22:08.377Z,5.87
2019-04-11T13:25:08.383Z,5.03
2019-04-11T13:27:48.523Z,5.80
2019-04-11T13:30:43.412Z,5.50
2019-04-11T13:33:16.951Z,5.87
2019-04-11T13:36:06.653Z,5.57
2019-04-11T13:38:45.019Z,5.93
2019-04-11T13:41:32.925Z,6.20
2019-04-11T13:44:31.289Z,6.57
2019-04-11T13:47:20.585Z,5.77
2019-04-11T13:49:58.188Z,5.90
2019-04-11T13:52:44.354Z,6.57
2019-04-11T13:55:32.559Z,6.13
2019-04-11T13:58:21.862Z,6.27
2019-04-11T14:00:53.725Z,6.03
2019-04-11T14:03:52.040Z,5.93
2019-04-11T14:06:41.861Z,5.67
2019-04-11T14:09:33.958Z,6.23
2019-04-11T14:12:09.156Z,6.17
2019-04-11T14:15:07.947Z,5.90
2019-04-11T14:17:56.732Z,5.70
2019-04-11T14:20:33.075Z,6.47
2019-04-11T14:23:25.348Z,6.10
2019-04-11T14:26:24.741Z,6.00
2019-04-11T14:29:09.284Z,7.50
2019-04-11T14:31:57.419Z,6.07
2019-04-11T14:34:47.156Z,5.77
2019-04-11T14:37:45.649Z,6.23
2019-04-11T14:40:26.940Z,6.20
2019-04-11T14:43:16.202Z,7.70
2019-04-11T14:46:06.925Z,6.63
2019-04-11T14:48:43.258Z,6.63
2019-04-11T14:51:46.261Z,6.33
2019-04-11T14:54:21.778Z,6.20
2019-04-11T14:57:01.086Z,6.23
2019-04-11T14:59:59.788Z,6.00
2019-04-11T15:03:08.705Z,6.57
2019-04-11T15:05:55.608Z,6.37
2019-04-11T15:08:56.436Z,7.17
2019-04-11T15:11:59.537Z,6.50
2019-04-11T15:14:51.786Z,6.27
2019-04-11T15:17:32.337Z,6.70
2019-04-11T15:20:12.339Z,5.53
2019-04-11T15:22:59.320Z,6.10
2019-04-11T15:25:55.307Z,6.23
2019-04-11T15:28:43.680Z,6.30
2019-04-11T15:31:47.762Z,6.43
2019-04-11T15:34:43.585Z,6.17
2019-04-11T15:37:46.211Z,6.27
2019-04-11T15:40:47.148Z,6.23
2019-04-11T15:43:47.396Z,6.33
2019-04-11T15:47:05.573Z,5.97
2019-04-11T15:50:00.691Z,6.33
2019-04-11T15:53:22.249Z,6.47
2019-04-11T15:56:54.902Z,5.73
2019-04-11T15:59:43.741Z,6.07
2019-04-11T16:03:15.741Z,5.77
2019-04-11T16:06:11.573Z,6.47
2019-04-11T16:08:53.595Z,5.37
2019-04-11T16:11:48.394Z,5.47
2019-04-11T16:14:21.685Z,5.40
2019-04-11T16:17:51.611Z,5.70
2019-04-11T16:20:56.014Z,6.00
2019-04-11T16:23:52.000Z,6.00
2019-04-11T16:26:32.549Z,6.30
2019-04-11T16:29:21.953Z,5.13
2019-04-11T16:31:53.034Z,6.40
2019-04-11T16:34:47.848Z,6.27
2019-04-11T16:37:10.922Z,5.97
2019-04-11T16:39:58.990Z,5.50
2019-04-11T16:42:53.628Z,5.70
2019-04-11T16:45:42.997Z,6.37
2019-04-11T16:48:13.977Z,6.50
2019-04-11T16:50:44.780Z,6.13
2019-04-11T16:53:16.313Z,6.60
2019-04-11T16:56:08.240Z,6.07
2019-04-11T16:58:38.824Z,7.30
2019-04-11T17:01:11.538Z,7.20
2019-04-11T17:03:48.346Z,7.10
2019-04-11T17:06:40.500Z,6.77
2019-04-11T17:09:26.782Z,6.10
2019-04-11T17:11:57.843Z,7.03
2019-04-11T17:14:33.354Z,6.77
2019-04-11T17:17:14.481Z,7.40
2019-04-11T17:19:36.884Z,6.73
2019-04-11T17:22:08.302Z,6.70
2019-04-11T17:24:38.954Z,8.13
2019-04-11T17:27:23.030Z,7.13
2019-04-11T17:29:58.437Z,7.07
2019-04-11T17:32:32.191Z,7.07
2019-04-11T17:35:08.486Z,7.10
2019-04-11T17:37:46.255Z,7.27
2019-04-11T17:40:25.115Z,7.27
2019-04-11T17:42:56.235Z,6.63
2019-04-11T17:45:28.387Z,7.03
2019-04-11T17:48:00.445Z,6.80
2019-04-11T17:50:35.031Z,7.10
2019-04-11T17:53:07.534Z,6.70
2019-04-11T17:55:41.217Z,6.27
2019-04-11T17:58:11.609Z,6.70
2019-04-11T18:00:46.618Z,6.20
2019-04-11T18:03:16.988Z,6.27
2019-04-11T18:05:49.300Z,5.53
2019-04-11T18:08:20.059Z,6.13
2019-04-11T18:10:55.781Z,6.70
2019-04-11T18:13:30.540Z,6.33
2019-04-11T18:16:02.914Z,5.93
2019-04-11T18:18:36.514Z,6.40
2019-04-11T18:21:10.603Z,6.97
2019-04-11T18:23:42.003Z,6.00
2019-04-11T18:27:33.501Z,6.13
2019-04-11T18:30:09.496Z,6.23
2019-04-11T18:32:53.886Z,6.23
2019-04-11T18:35:25.752Z,6.10
2019-04-11T18:38:02.066Z,5.70
2019-04-11T18:40:34.254Z,5.87
2019-04-11T18:43:26.603Z,5.83
2019-04-11T18:46:17.084Z,5.70
2019-04-11T18:48:54.538Z,5.60
2019-04-11T18:51:25.999Z,5.63
2019-04-11T18:53:59.951Z,5.30
2019-04-11T18:56:37.931Z,6.17
2019-04-11T18:59:22.346Z,5.33
2019-04-11T19:02:09.635Z,5.53
2019-04-11T19:04:49.837Z,5.80
2019-04-11T19:15:10.080Z,5.50
2019-04-11T19:19:17.914Z,6.50
2019-04-11T19:22:27.554Z,5.63
2019-04-11T19:29:07.305Z,6.23
2019-04-11T19:37:14.288Z,6.33
2019-04-11T19:44:06.768Z,6.67
2019-04-11T19:47:08.475Z,6.90
2019-04-11T19:50:12.036Z,7.13
2019-04-11T19:53:36.357Z,7.30
2019-04-11T19:59:23.244Z,7.47
2019-04-11T20:01:18.269Z,7.27
2019-04-11T20:15:43.381Z,8.13
2019-04-11T20:18:22.490Z,7.40
2019-04-11T20:21:00.681Z,7.63
2019-04-11T20:23:55.658Z,8.17
2019-04-11T20:26:28.927Z,7.70
2019-04-11T20:29:10.324Z,8.00
2019-04-11T20:31:47.402Z,8.57
2019-04-11T20:34:27.215Z,7.67
2019-04-11T20:37:02.055Z,8.30
2019-04-11T20:39:38.543Z,7.80
2019-04-11T20:42:17.092Z,7.60
2019-04-11T20:44:48.862Z,7.60
2019-04-11T20:47:20.713Z,7.80
2019-04-11T20:49:53.839Z,8.17
2019-04-11T20:52:36.501Z,8.07
2019-04-11T20:55:15.777Z,7.90
2019-04-11T20:57:46.825Z,8.00
2019-04-11T21:00:23.939Z,8.03
2019-04-11T21:02:58.373Z,7.80
2019-04-11T21:05:30.943Z,8.37
2019-04-11T21:08:10.630Z,8.03
2019-04-11T21:10:46.270Z,8.00
2019-04-11T21:13:38.398Z,7.87
2019-04-11T21:16:11.955Z,8.03
2019-04-11T21:18:50.400Z,6.90
2019-04-11T21:21:27.125Z,7.87
2019-04-11T21:24:00.546Z,7.90
2019-04-11T21:26:34.970Z,7.93
2019-04-11T21:29:09.659Z,7.77
2019-04-11T21:31:41.906Z,8.03
2019-04-11T21:34:18.154Z,8.33
2019-04-11T21:36:55.926Z,7.70
2019-04-11T21:39:32.876Z,8.20
2019-04-11T21:42:06.133Z,7.43
2019-04-11T21:44:40.855Z,7.70
2019-04-11T21:47:19.849Z,8.57
2019-04-11T21:49:52.757Z,7.90
2019-04-11T21:52:27.315Z,7.60
2019-04-11T21:55:02.188Z,8.37
2019-04-11T21:57:39.098Z,8.97
2019-04-11T22:00:22.308Z,8.23
2019-04-11T22:02:55.104Z,8.53
2019-04-11T22:05:28.884Z,9.10
2019-04-11T22:08:00.942Z,8.87
2019-04-11T22:10:40.076Z,9.40
2019-04-11T22:13:11.790Z,8.80
2019-04-11T22:15:45.119Z,9.10
2019-04-11T22:18:19.257Z,9.27
2019-04-11T22:20:51.834Z,10.50
2019-04-11T22:23:23.798Z,8.17
2019-04-11T22:25:57.956Z,8.93
2019-04-11T22:28:30.479Z,9.33
2019-04-11T22:31:02.845Z,9.30
2019-04-11T22:33:49.077Z,9.73
2019-04-11T22:36:21.922Z,8.83
2019-04-11T22:38:53.438Z,9.00
2019-04-11T22:41:27.802Z,8.63
2019-04-11T22:44:08.010Z,8.67
2019-04-11T22:46:40.550Z,8.57
2019-04-11T22:49:11.158Z,8.17
2019-04-11T22:51:43.438Z,8.53
2019-04-11T22:54:14.025Z,8.37
2019-04-11T22:56:47.273Z,8.57
2019-04-11T22:59:19.409Z,8.73
2019-04-11T23:01:51.012Z,8.83
2019-04-11T23:04:21.850Z,7.03
2019-04-11T23:06:52.998Z,7.70
2019-04-11T23:09:26.312Z,8.50
2019-04-11T23:11:57.277Z,8.27
2019-04-11T23:14:28.548Z,8.53
2019-04-11T23:16:59.212Z,7.87
2019-04-11T23:19:31.955Z,7.47
2019-04-11T23:22:02.435Z,8.33
2019-04-11T23:24:34.775Z,8.57
2019-04-11T23:27:07.301Z,8.17
2019-04-11T23:29:38.141Z,7.80
2019-04-11T23:32:14.881Z,7.77
2019-04-11T23:34:49.851Z,8.27
2019-04-11T23:37:21.736Z,7.87
2019-04-11T23:39:52.786Z,8.47
2019-04-11T23:42:23.554Z,8.80
2019-04-11T23:44:54.142Z,8.37
2019-04-11T23:47:29.805Z,9.47
2019-04-11T23:50:02.571Z,9.17
2019-04-11T23:52:33.399Z,9.47
2019-04-11T23:55:04.553Z,9.83
2019-04-11T23:57:35.549Z,9.77
